Articles

Pooleys Chart - EITM

Share

Trim Flying Club Pooleys Chart for Trim Airfield

Share

Trim Flying Club goes to the Aran Islands

Learn to fly at Trim Flying Club

Rainfall Radar Now

Atlantic Charts Pressure - Today

Atlantic Charts Rainfall - Today

 
 

Atlantic Charts Pressure - Tomorrow

Sunrise Sunset

Click for Dublin, Ireland Forecast

Aviation WX Dublin EIDW

[source: ADDS]
METAR
EIDW 231530Z 08010KT 050V110 9999 FEW028 23/14 Q1021 NOSIG =
TAF
TAF EIDW 231100Z 2312/2412 12010KT 9999 FEW020 BECMG 2319/2322 VRB03KT TEMPO 2402/2407 3000 BR BKN005 BECMG 2407/2410 07008KT =